Sentry Page Protection

Latest Glasgow METAR Decoded

What is a METAR?

Raw METAR: EGPF 080620Z 04005KT 9999 -RA BKN021/// BKN032/// //////TCU 05/03 Q0972
Time Published: Wed Dec 8 06:20:00 2021

Altimeter: 972 hPa (28.70 inHg)
Clouds: Broken layer at 2100ft, Broken layer at 3200ft - Reported AGL
Wx_codes: Light Rain
Visibility: 10km (6.2sm)
Dewpoint: 3°C (37°F)
Temperature: 5°C (41°F)
Wind: NE-040 at 5kt

Data pulled from AVWX API.

Customise webcam positions

Apply changes